createdAt,value
2022-09-24T00:01:32.769Z,21.01
2022-09-24T00:04:04.859Z,21.02
2022-09-24T00:06:34.744Z,21.03
2022-09-24T00:09:01.197Z,21.02
2022-09-24T00:11:28.648Z,21.01
2022-09-24T00:13:56.012Z,21.01
2022-09-24T00:16:23.301Z,20.98
2022-09-24T00:18:49.864Z,21.00
2022-09-24T00:21:18.255Z,21.00
2022-09-24T00:23:44.744Z,21.00
2022-09-24T00:26:30.726Z,21.00
2022-09-24T00:28:58.142Z,20.99
2022-09-24T00:31:24.926Z,20.95
2022-09-24T00:33:52.200Z,20.98
2022-09-24T00:36:19.760Z,20.98
2022-09-24T00:38:51.482Z,20.96
2022-09-24T00:41:21.746Z,20.97
2022-09-24T00:43:48.544Z,20.96
2022-09-24T00:46:37.820Z,20.93
2022-09-24T00:49:15.123Z,20.96
2022-09-24T00:51:41.748Z,20.95
2022-09-24T00:54:11.154Z,20.95
2022-09-24T00:56:38.703Z,20.94
2022-09-24T00:59:06.476Z,20.91
2022-09-24T01:01:33.040Z,20.92
2022-09-24T01:03:59.604Z,20.91
2022-09-24T01:06:26.087Z,20.90
2022-09-24T01:08:53.437Z,20.90
2022-09-24T01:11:44.969Z,20.89
2022-09-24T01:14:33.396Z,20.89
2022-09-24T01:17:18.323Z,20.89
2022-09-24T01:20:00.854Z,20.88
2022-09-24T01:23:03.473Z,20.89
2022-09-24T01:25:29.753Z,20.87
2022-09-24T01:28:13.681Z,20.88
2022-09-24T01:30:42.362Z,20.87
2022-09-24T01:33:13.121Z,20.87
2022-09-24T01:35:49.183Z,20.88
2022-09-24T01:38:17.732Z,20.87
2022-09-24T01:40:44.755Z,20.86
2022-09-24T01:43:11.292Z,20.85
2022-09-24T01:45:38.158Z,20.85
2022-09-24T01:48:04.807Z,20.85
2022-09-24T01:50:33.825Z,20.84
2022-09-24T01:53:11.781Z,20.84
2022-09-24T01:55:42.234Z,20.83
2022-09-24T01:58:10.564Z,20.79
2022-09-24T02:00:38.213Z,20.81
2022-09-24T02:03:23.971Z,20.81
2022-09-24T02:06:03.778Z,20.81
2022-09-24T02:08:33.208Z,20.81
2022-09-24T02:11:07.773Z,20.81
2022-09-24T02:13:40.113Z,20.79
2022-09-24T02:16:08.589Z,20.80
2022-09-24T02:18:36.864Z,20.78
2022-09-24T02:21:06.707Z,20.80
2022-09-24T02:23:33.720Z,20.79
2022-09-24T02:26:01.979Z,20.78
2022-09-24T02:28:28.631Z,20.77
2022-09-24T02:31:10.008Z,20.79
2022-09-24T02:33:55.574Z,20.78
2022-09-24T02:36:24.829Z,20.78
2022-09-24T02:38:52.178Z,20.75
2022-09-24T02:41:19.297Z,20.77
2022-09-24T02:43:46.029Z,20.75
2022-09-24T02:46:12.502Z,20.75
2022-09-24T02:48:39.019Z,20.74
2022-09-24T02:51:05.777Z,20.73
2022-09-24T02:53:32.724Z,20.73
2022-09-24T02:56:00.800Z,20.72
2022-09-24T02:58:28.014Z,20.72
2022-09-24T03:00:57.284Z,20.71
2022-09-24T03:03:23.970Z,20.71
2022-09-24T03:05:52.992Z,20.70
2022-09-24T03:08:20.364Z,20.71
2022-09-24T03:10:46.816Z,20.72
2022-09-24T03:13:13.730Z,20.72
2022-09-24T03:15:40.321Z,20.72
2022-09-24T03:18:06.831Z,20.71
2022-09-24T03:20:33.271Z,20.70
2022-09-24T03:22:59.868Z,20.71
2022-09-24T03:25:26.323Z,20.70
2022-09-24T03:27:52.794Z,20.68
2022-09-24T03:30:37.821Z,20.68
2022-09-24T03:33:04.288Z,20.70
2022-09-24T03:35:30.857Z,20.69
2022-09-24T03:37:57.323Z,20.68
2022-09-24T03:40:24.264Z,20.67
2022-09-24T03:42:50.837Z,20.67
2022-09-24T03:45:17.319Z,20.67
2022-09-24T03:47:43.803Z,20.67
2022-09-24T03:50:11.541Z,20.67
2022-09-24T03:52:41.245Z,20.65
2022-09-24T03:55:08.037Z,20.66
2022-09-24T03:57:34.534Z,20.66
2022-09-24T04:00:01.058Z,20.65
2022-09-24T04:02:27.551Z,20.65
2022-09-24T04:04:54.057Z,20.65
2022-09-24T04:07:20.817Z,20.63
2022-09-24T04:09:47.268Z,20.62
2022-09-24T04:12:14.427Z,20.64
2022-09-24T04:14:40.873Z,20.63
2022-09-24T04:17:07.341Z,20.61
2022-09-24T04:19:33.788Z,20.61
2022-09-24T04:22:00.300Z,20.61
2022-09-24T04:24:26.948Z,20.59
2022-09-24T04:26:53.398Z,20.60
2022-09-24T04:29:20.101Z,20.60
2022-09-24T04:31:46.593Z,20.60
2022-09-24T04:34:13.416Z,20.59
2022-09-24T04:36:39.870Z,20.58
2022-09-24T04:39:06.385Z,20.58
2022-09-24T04:41:35.000Z,20.58
2022-09-24T04:44:01.618Z,20.72
2022-09-24T04:46:28.137Z,20.90
2022-09-24T04:48:55.064Z,20.91
2022-09-24T04:51:21.999Z,21.03
2022-09-24T04:53:50.930Z,21.09
2022-09-24T04:56:17.493Z,21.13
2022-09-24T04:58:44.602Z,21.20
2022-09-24T05:01:13.253Z,21.24
2022-09-24T05:03:39.825Z,21.26
2022-09-24T05:06:06.297Z,21.26
2022-09-24T05:08:32.776Z,21.27
2022-09-24T05:11:00.010Z,21.26
2022-09-24T05:13:26.470Z,21.26
2022-09-24T05:15:52.978Z,21.26
2022-09-24T05:18:19.492Z,21.25
2022-09-24T05:20:45.939Z,21.24
2022-09-24T05:23:12.795Z,21.22
2022-09-24T05:25:59.503Z,21.21
2022-09-24T05:28:26.006Z,21.18
2022-09-24T05:30:57.223Z,21.17
2022-09-24T05:33:23.840Z,21.14
2022-09-24T05:35:57.387Z,21.13
2022-09-24T05:38:24.289Z,21.12
2022-09-24T05:40:50.860Z,21.19
2022-09-24T05:43:17.884Z,21.33
2022-09-24T05:45:45.282Z,21.37
2022-09-24T05:48:11.932Z,21.41
2022-09-24T05:50:38.439Z,21.46
2022-09-24T05:53:05.241Z,21.49
2022-09-24T05:55:32.707Z,21.52
2022-09-24T05:58:03.872Z,21.52
2022-09-24T06:00:30.328Z,21.53
2022-09-24T06:03:05.705Z,21.53
2022-09-24T06:05:34.204Z,21.52
2022-09-24T06:08:01.226Z,21.51
2022-09-24T06:10:27.724Z,21.49
2022-09-24T06:12:54.260Z,21.47
2022-09-24T06:15:20.909Z,21.45
2022-09-24T06:17:47.455Z,21.46
2022-09-24T06:20:13.991Z,21.43
2022-09-24T06:22:40.462Z,21.43
2022-09-24T06:25:07.754Z,21.37
2022-09-24T06:27:34.197Z,21.32
2022-09-24T06:30:00.643Z,21.40
2022-09-24T06:32:27.101Z,21.42
2022-09-24T06:34:58.395Z,21.41
2022-09-24T06:37:25.671Z,21.50
2022-09-24T06:39:52.123Z,21.52
2022-09-24T06:42:19.731Z,21.58
2022-09-24T06:44:46.180Z,21.60
2022-09-24T06:47:12.672Z,21.60
2022-09-24T06:49:39.150Z,21.59
2022-09-24T06:52:11.553Z,21.58
2022-09-24T06:54:41.423Z,21.56
2022-09-24T06:57:08.698Z,21.58
2022-09-24T06:59:35.549Z,21.59
2022-09-24T07:02:02.350Z,21.62
2022-09-24T07:04:28.858Z,21.61
2022-09-24T07:07:13.978Z,21.57
2022-09-24T07:09:41.464Z,21.47
2022-09-24T07:12:08.817Z,21.46
2022-09-24T07:14:35.285Z,21.40
2022-09-24T07:17:01.722Z,21.40
2022-09-24T07:19:28.176Z,21.39
2022-09-24T07:21:54.622Z,21.42
2022-09-24T07:24:21.085Z,21.46
2022-09-24T07:26:47.532Z,21.47
2022-09-24T07:29:13.998Z,21.46
2022-09-24T07:31:40.499Z,21.44
2022-09-24T07:34:08.563Z,21.40
2022-09-24T07:36:35.044Z,21.41
2022-09-24T07:39:01.488Z,21.40
2022-09-24T07:41:27.963Z,21.37
2022-09-24T07:43:55.789Z,21.35
2022-09-24T07:46:22.335Z,21.37
2022-09-24T07:48:49.130Z,21.34
2022-09-24T07:51:16.227Z,21.29
2022-09-24T07:53:42.730Z,21.31
2022-09-24T07:56:09.189Z,21.23
2022-09-24T07:58:35.670Z,21.16
2022-09-24T08:01:02.166Z,20.98
2022-09-24T08:03:28.661Z,21.07
2022-09-24T08:05:58.513Z,21.15
2022-09-24T08:08:24.996Z,21.20
2022-09-24T08:10:51.510Z,20.70
2022-09-24T08:13:18.008Z,20.24
2022-09-24T08:15:44.506Z,20.79
2022-09-24T08:18:11.027Z,20.94
2022-09-24T08:20:37.899Z,21.00
2022-09-24T08:23:07.234Z,21.11
2022-09-24T08:25:33.684Z,21.11
2022-09-24T08:28:04.414Z,21.13
2022-09-24T08:30:31.111Z,21.13
2022-09-24T08:32:58.117Z,21.15
2022-09-24T08:35:24.588Z,21.12
2022-09-24T08:37:53.768Z,21.17
2022-09-24T08:40:22.339Z,21.14
2022-09-24T08:42:50.883Z,21.16
2022-09-24T08:45:36.240Z,21.15
2022-09-24T08:48:09.925Z,21.16
2022-09-24T08:50:39.432Z,21.17
2022-09-24T08:53:33.795Z,21.16
2022-09-24T08:56:00.640Z,21.14
2022-09-24T08:58:45.475Z,21.18
2022-09-24T09:01:11.845Z,21.17
2022-09-24T09:04:00.044Z,21.17
2022-09-24T09:06:51.453Z,21.23
2022-09-24T09:09:19.834Z,21.23
2022-09-24T09:11:51.784Z,21.31
2022-09-24T09:14:45.906Z,21.35
2022-09-24T09:17:27.697Z,21.41
2022-09-24T09:19:56.548Z,21.43
2022-09-24T09:22:28.931Z,21.42
2022-09-24T09:25:01.311Z,21.46
2022-09-24T09:27:30.876Z,21.49
2022-09-24T09:29:57.858Z,21.37
2022-09-24T09:32:30.456Z,21.38
2022-09-24T09:35:20.995Z,21.40
2022-09-24T09:37:54.450Z,21.34
2022-09-24T09:40:38.229Z,21.33
2022-09-24T09:43:12.821Z,21.28
2022-09-24T09:45:57.915Z,21.24
2022-09-24T09:48:26.198Z,21.19
2022-09-24T09:50:55.555Z,21.17
2022-09-24T09:53:24.044Z,21.18
2022-09-24T09:55:57.026Z,21.17
2022-09-24T09:58:24.946Z,21.15
2022-09-24T10:00:51.927Z,21.14
2022-09-24T10:03:25.142Z,21.15
2022-09-24T10:06:11.212Z,21.15
2022-09-24T10:08:37.716Z,21.12
2022-09-24T10:11:04.172Z,21.13
2022-09-24T10:13:33.800Z,21.14
2022-09-24T10:16:03.814Z,21.15
2022-09-24T10:18:34.846Z,21.11
2022-09-24T10:21:08.365Z,21.12
2022-09-24T10:23:38.129Z,21.16
2022-09-24T10:26:05.100Z,21.19
2022-09-24T10:28:50.171Z,21.19
2022-09-24T10:31:23.905Z,21.19
2022-09-24T10:33:52.238Z,21.30
2022-09-24T10:36:26.388Z,21.09
2022-09-24T10:39:10.467Z,21.14
2022-09-24T10:41:37.006Z,21.15
2022-09-24T10:44:05.469Z,21.22
2022-09-24T10:46:50.795Z,21.25
2022-09-24T10:49:46.293Z,21.27
2022-09-24T10:53:07.090Z,21.27
2022-09-24T10:55:55.355Z,21.28
2022-09-24T10:58:53.348Z,21.33
2022-09-24T11:01:32.361Z,21.35
2022-09-24T11:04:24.031Z,21.36
2022-09-24T11:07:03.127Z,21.38
2022-09-24T11:09:41.801Z,21.38
2022-09-24T11:12:30.252Z,21.38
2022-09-24T11:15:11.803Z,21.37
2022-09-24T11:18:12.079Z,21.45
2022-09-24T11:20:50.968Z,21.46
2022-09-24T11:23:49.102Z,21.46
2022-09-24T11:26:34.320Z,21.46
2022-09-24T11:29:22.678Z,21.32
2022-09-24T11:32:06.790Z,21.37
2022-09-24T11:34:59.116Z,21.28
2022-09-24T11:37:39.063Z,21.33
2022-09-24T11:40:42.565Z,21.35
2022-09-24T11:43:35.294Z,21.33
2022-09-24T11:46:12.170Z,21.23
2022-09-24T11:48:50.492Z,20.53
2022-09-24T11:51:38.658Z,20.50
2022-09-24T11:54:24.241Z,20.79
2022-09-24T11:56:54.098Z,21.01
2022-09-24T11:59:42.364Z,21.11
2022-09-24T12:02:21.497Z,21.11
2022-09-24T12:05:14.839Z,21.12
2022-09-24T12:08:01.427Z,21.15
2022-09-24T12:10:35.314Z,21.13
2022-09-24T12:13:27.519Z,21.14
2022-09-24T12:16:00.241Z,21.12
2022-09-24T12:18:40.209Z,21.14
2022-09-24T12:21:10.436Z,21.14
2022-09-24T12:23:41.703Z,21.14
2022-09-24T12:26:08.163Z,21.15
2022-09-24T12:29:13.596Z,21.14
2022-09-24T12:32:01.371Z,21.17
2022-09-24T12:34:50.828Z,21.23
2022-09-24T12:37:20.324Z,21.28
2022-09-24T12:40:01.163Z,21.29
2022-09-24T12:42:33.819Z,21.41
2022-09-24T12:45:00.666Z,21.49
2022-09-24T12:47:28.242Z,21.53
2022-09-24T12:49:56.856Z,21.58
2022-09-24T12:52:28.601Z,21.52
2022-09-24T12:55:04.389Z,21.53
2022-09-24T12:57:38.983Z,21.47
2022-09-24T13:00:34.304Z,21.52
2022-09-24T13:03:01.144Z,21.52
2022-09-24T13:05:40.754Z,21.54
2022-09-24T13:08:10.107Z,21.48
2022-09-24T13:10:36.763Z,21.39
2022-09-24T13:13:14.857Z,21.41
2022-09-24T13:15:42.012Z,21.39
2022-09-24T13:18:11.479Z,21.37
2022-09-24T13:20:38.936Z,21.31
2022-09-24T13:23:12.246Z,21.29
2022-09-24T13:25:38.758Z,21.40
2022-09-24T13:28:37.835Z,21.37
2022-09-24T13:31:17.896Z,21.32
2022-09-24T13:33:45.603Z,21.32
2022-09-24T13:36:38.522Z,21.24
2022-09-24T13:39:20.865Z,21.29
2022-09-24T13:41:56.929Z,21.25
2022-09-24T13:44:30.863Z,20.80
2022-09-24T13:47:00.242Z,20.25
2022-09-24T13:49:27.106Z,20.17
2022-09-24T13:52:04.114Z,19.95
2022-09-24T13:54:34.158Z,20.61
2022-09-24T13:57:11.270Z,20.93
2022-09-24T13:59:37.851Z,20.76
2022-09-24T14:02:04.673Z,20.21
2022-09-24T14:04:31.316Z,20.10
2022-09-24T14:06:58.150Z,20.56
2022-09-24T14:09:34.278Z,21.04
2022-09-24T14:12:22.414Z,21.19
2022-09-24T14:14:58.150Z,21.38
2022-09-24T14:17:24.874Z,21.46
2022-09-24T14:19:55.617Z,21.52
2022-09-24T14:22:31.070Z,21.54
2022-09-24T14:25:03.906Z,21.59
2022-09-24T14:27:30.738Z,21.70
2022-09-24T14:30:02.200Z,21.75
2022-09-24T14:32:33.179Z,21.81
2022-09-24T14:35:00.947Z,21.82
2022-09-24T14:37:33.350Z,21.86
2022-09-24T14:40:14.249Z,21.86
2022-09-24T14:42:41.007Z,21.72
2022-09-24T14:45:08.290Z,21.77
2022-09-24T14:47:35.785Z,21.85
2022-09-24T14:50:04.169Z,21.95
2022-09-24T14:52:32.443Z,22.02
2022-09-24T14:55:22.061Z,22.14
2022-09-24T14:57:52.876Z,22.17
2022-09-24T15:00:25.284Z,22.17
2022-09-24T15:02:58.486Z,22.08
2022-09-24T15:05:26.417Z,22.06
2022-09-24T15:08:15.725Z,22.11
2022-09-24T15:10:42.740Z,22.12
2022-09-24T15:13:13.827Z,22.13
2022-09-24T15:15:40.334Z,22.18
2022-09-24T15:18:10.929Z,22.37
2022-09-24T15:20:38.046Z,22.30
2022-09-24T15:23:04.500Z,22.18
2022-09-24T15:25:30.948Z,22.19
2022-09-24T15:27:57.602Z,22.18
2022-09-24T15:30:24.353Z,22.26
2022-09-24T15:32:51.154Z,22.26
2022-09-24T15:35:18.907Z,22.38
2022-09-24T15:37:45.397Z,22.25
2022-09-24T15:40:22.982Z,22.37
2022-09-24T15:42:50.139Z,22.49
2022-09-24T15:45:18.654Z,22.53
2022-09-24T15:47:45.208Z,22.56
2022-09-24T15:50:12.387Z,22.70
2022-09-24T15:53:05.150Z,22.73
2022-09-24T15:55:31.611Z,22.82
2022-09-24T15:57:58.065Z,22.80
2022-09-24T16:00:24.801Z,21.67
2022-09-24T16:02:53.898Z,21.76
2022-09-24T16:05:20.591Z,21.37
2022-09-24T16:07:47.114Z,21.05
2022-09-24T16:10:13.668Z,22.10
2022-09-24T16:12:40.461Z,22.50
2022-09-24T16:15:07.367Z,22.69
2022-09-24T16:17:33.895Z,22.69
2022-09-24T16:20:00.507Z,22.84
2022-09-24T16:22:26.958Z,22.95
2022-09-24T16:24:54.189Z,22.83
2022-09-24T16:27:20.667Z,22.93
2022-09-24T16:29:47.156Z,22.88
2022-09-24T16:32:13.875Z,22.81
2022-09-24T16:34:40.914Z,22.87
2022-09-24T16:37:08.137Z,23.08
2022-09-24T16:39:34.679Z,23.17
2022-09-24T16:42:01.258Z,23.18
2022-09-24T16:46:54.130Z,21.93
2022-09-24T16:49:22.733Z,21.15
2022-09-24T16:51:49.207Z,20.96
2022-09-24T16:54:15.676Z,20.65
2022-09-24T16:56:42.572Z,21.16
2022-09-24T16:59:10.107Z,22.29
2022-09-24T17:01:36.717Z,22.88
2022-09-24T17:04:03.215Z,23.12
2022-09-24T17:06:30.545Z,23.26
2022-09-24T17:09:15.650Z,23.34
2022-09-24T17:11:42.442Z,23.38
2022-09-24T17:14:11.491Z,23.39
2022-09-24T17:16:38.707Z,23.50
2022-09-24T17:19:05.177Z,23.46
2022-09-24T17:21:31.670Z,23.48
2022-09-24T17:23:58.163Z,23.49
2022-09-24T17:26:25.141Z,23.49
2022-09-24T17:28:53.006Z,23.50
2022-09-24T17:31:23.560Z,23.51
2022-09-24T17:34:04.421Z,23.30
2022-09-24T17:36:32.441Z,23.19
2022-09-24T17:39:00.088Z,23.29
2022-09-24T17:41:28.057Z,23.42
2022-09-24T17:43:58.383Z,23.45
2022-09-24T17:46:25.669Z,22.41
2022-09-24T17:48:53.583Z,23.03
2022-09-24T17:51:24.894Z,23.37
2022-09-24T17:53:53.060Z,23.46
2022-09-24T17:56:20.591Z,23.53
2022-09-24T17:58:47.153Z,23.56
2022-09-24T18:01:14.598Z,23.57
2022-09-24T18:03:41.206Z,23.58
2022-09-24T18:06:09.185Z,23.64
2022-09-24T18:08:39.214Z,23.70
2022-09-24T18:11:10.591Z,23.76
2022-09-24T18:13:37.172Z,23.65
2022-09-24T18:16:05.133Z,23.76
2022-09-24T18:18:31.815Z,23.79
2022-09-24T18:21:02.021Z,23.80
2022-09-24T18:23:28.719Z,23.81
2022-09-24T18:25:56.244Z,23.76
2022-09-24T18:28:23.256Z,23.75
2022-09-24T18:30:49.813Z,23.74
2022-09-24T18:33:16.317Z,23.78
2022-09-24T18:35:43.772Z,23.77
2022-09-24T18:38:10.222Z,23.80
2022-09-24T18:40:38.021Z,23.77
2022-09-24T18:43:04.498Z,23.76
2022-09-24T18:45:31.018Z,23.79
2022-09-24T18:47:57.473Z,23.84
2022-09-24T18:50:24.294Z,23.86
2022-09-24T18:52:50.750Z,23.89
2022-09-24T18:55:17.218Z,23.89
2022-09-24T18:57:43.685Z,23.93
2022-09-24T19:00:30.450Z,23.86
2022-09-24T19:02:57.432Z,23.90
2022-09-24T19:05:24.034Z,23.95
2022-09-24T19:07:50.489Z,22.67
2022-09-24T19:10:17.045Z,23.23
2022-09-24T19:12:43.841Z,23.58
2022-09-24T19:15:10.311Z,23.65
2022-09-24T19:17:36.769Z,23.70
2022-09-24T19:20:03.311Z,23.71
2022-09-24T19:22:29.753Z,23.56
2022-09-24T19:24:56.212Z,23.60
2022-09-24T19:27:22.665Z,23.76
2022-09-24T19:29:50.186Z,23.81
2022-09-24T19:32:16.738Z,23.88
2022-09-24T19:34:43.211Z,23.93
2022-09-24T19:37:09.778Z,23.91
2022-09-24T19:39:36.231Z,23.96
2022-09-24T19:42:02.687Z,23.98
2022-09-24T19:44:29.481Z,23.97
2022-09-24T19:46:55.930Z,23.98
2022-09-24T19:49:23.654Z,23.98
2022-09-24T19:51:50.093Z,24.00
2022-09-24T19:54:16.620Z,23.97
2022-09-24T19:56:43.115Z,23.79
2022-09-24T19:59:09.875Z,23.79
2022-09-24T20:01:36.650Z,23.88
2022-09-24T20:04:05.198Z,23.80
2022-09-24T20:06:33.513Z,23.88
2022-09-24T20:08:59.996Z,23.69
2022-09-24T20:11:26.570Z,23.82
2022-09-24T20:13:54.116Z,23.84
2022-09-24T20:16:22.097Z,23.87
2022-09-24T20:18:49.295Z,23.84
2022-09-24T20:21:17.148Z,23.82
2022-09-24T20:23:44.307Z,23.78
2022-09-24T20:26:29.850Z,23.80
2022-09-24T20:28:56.521Z,23.80
2022-09-24T20:31:23.087Z,23.85
2022-09-24T20:33:49.626Z,23.87
2022-09-24T20:36:19.717Z,23.85
2022-09-24T20:38:48.490Z,23.87
2022-09-24T20:41:20.120Z,23.81
2022-09-24T20:43:46.662Z,23.82
2022-09-24T20:46:16.568Z,23.83
2022-09-24T20:48:43.195Z,23.82
2022-09-24T20:51:10.691Z,23.82
2022-09-24T20:53:37.255Z,23.85
2022-09-24T20:56:05.867Z,23.83
2022-09-24T20:58:33.991Z,23.84
2022-09-24T21:01:00.680Z,23.90
2022-09-24T21:03:43.301Z,23.95
2022-09-24T21:06:15.321Z,23.94
2022-09-24T21:08:42.802Z,23.86
2022-09-24T21:11:15.927Z,23.91
2022-09-24T21:13:44.788Z,23.88
2022-09-24T21:16:11.521Z,23.89
2022-09-24T21:18:40.577Z,23.91
2022-09-24T21:21:08.769Z,23.72
2022-09-24T21:23:36.152Z,23.77
2022-09-24T21:26:19.170Z,23.77
2022-09-24T21:28:46.707Z,23.62
2022-09-24T21:31:14.211Z,23.50
2022-09-24T21:33:44.676Z,23.60
2022-09-24T21:36:12.832Z,23.63
2022-09-24T21:38:39.340Z,23.57
2022-09-24T21:41:08.576Z,21.72
2022-09-24T21:43:35.233Z,22.69
2022-09-24T21:46:07.959Z,23.26
2022-09-24T21:48:34.838Z,23.34
2022-09-24T21:51:02.537Z,23.28
2022-09-24T21:53:29.251Z,23.32
2022-09-24T21:55:55.711Z,23.26
2022-09-24T21:58:22.165Z,23.29
2022-09-24T22:03:15.220Z,23.23
2022-09-24T22:05:43.788Z,23.27
2022-09-24T22:08:13.228Z,23.28
2022-09-24T22:10:40.793Z,23.30
2022-09-24T22:13:14.051Z,23.33
2022-09-24T22:15:43.547Z,23.46
2022-09-24T22:18:13.036Z,23.44
2022-09-24T22:20:44.188Z,23.39
2022-09-24T22:23:11.135Z,23.37
2022-09-24T22:25:38.005Z,23.45
2022-09-24T22:28:04.626Z,23.42
2022-09-24T22:30:31.282Z,23.35
2022-09-24T22:32:57.912Z,23.47
2022-09-24T22:35:43.540Z,23.42
2022-09-24T22:38:10.203Z,23.24
2022-09-24T22:40:36.738Z,21.66
2022-09-24T22:43:03.280Z,21.08
2022-09-24T22:45:29.767Z,21.25
2022-09-24T22:47:56.686Z,22.13
2022-09-24T22:50:23.164Z,22.69
2022-09-24T22:52:49.995Z,22.80
2022-09-24T22:55:16.538Z,22.91
2022-09-24T22:57:43.086Z,22.91
2022-09-24T23:00:09.987Z,22.98
2022-09-24T23:02:36.449Z,23.05
2022-09-24T23:05:03.466Z,23.16
2022-09-24T23:07:29.968Z,23.15
2022-09-24T23:09:56.460Z,23.19
2022-09-24T23:12:22.907Z,23.17
2022-09-24T23:14:52.525Z,23.12
2022-09-24T23:17:20.262Z,22.91
2022-09-24T23:19:49.456Z,22.64
2022-09-24T23:22:16.881Z,22.54
2022-09-24T23:24:43.986Z,22.21
2022-09-24T23:27:10.546Z,22.32
2022-09-24T23:29:37.505Z,22.45
2022-09-24T23:32:04.359Z,22.46
2022-09-24T23:34:30.864Z,22.47
2022-09-24T23:36:57.353Z,22.44
2022-09-24T23:39:23.839Z,22.39
2022-09-24T23:41:50.772Z,22.42
2022-09-24T23:44:17.288Z,22.34
2022-09-24T23:46:43.787Z,22.28
2022-09-24T23:49:10.283Z,22.19
2022-09-24T23:51:36.740Z,22.14
2022-09-24T23:54:03.343Z,22.12
2022-09-24T23:56:29.813Z,22.09
2022-09-24T23:58:56.283Z,22.06
